Terminal Aerodrome Forecast
Issued by NWS

Home | Current Version | Previous Version | Text Only | Print | Product List | Glossary On
Versions: 1 2 3 4 5 6 7 8 9 10 11 12 13 14 15 16 17 18 19 20 21
348
FTAK31 PAJN 061720
TAFAPG
TAF
PAPG 061720Z 0618/0718 VRB03KT P6SM -SHRA SCT015 OVC025
     FM070000 09003KT P6SM FEW025 BKN050 BKN070
     FM070900 09004KT P6SM VCSH FEW025 BKN045 OVC090
     FM071100 VRB05KT P6SM -RA BKN035 OVC050
     FM071500 10010KT P6SM -RA BKN025 OVC040
      AMD LTD TO CLD VIS AND WIND 0706/0715=

USA.gov is the U.S. government's official web portal to all federal, state and local government web resources and services.